createdAt,value
2018-10-19T00:01:04.076Z,9.24
2018-10-19T00:03:32.754Z,9.08
2018-10-19T00:06:01.639Z,9.01
2018-10-19T00:08:30.506Z,8.93
2018-10-19T00:10:59.145Z,8.92
2018-10-19T00:13:27.966Z,8.85
2018-10-19T00:15:56.751Z,8.83
2018-10-19T00:18:25.598Z,8.80
2018-10-19T00:20:54.365Z,8.81
2018-10-19T00:23:23.187Z,8.80
2018-10-19T00:25:51.966Z,8.85
2018-10-19T00:28:20.542Z,8.88
2018-10-19T00:30:49.157Z,8.86
2018-10-19T00:33:17.791Z,8.80
2018-10-19T00:35:46.937Z,8.75
2018-10-19T00:38:16.065Z,8.70
2018-10-19T00:40:45.595Z,8.61
2018-10-19T00:43:14.445Z,8.54
2018-10-19T00:45:45.433Z,8.61
2018-10-19T00:48:24.811Z,8.69
2018-10-19T00:50:53.653Z,8.58
2018-10-19T00:53:22.767Z,8.59
2018-10-19T00:55:51.818Z,8.43
2018-10-19T00:58:20.658Z,8.51
2018-10-19T01:00:49.546Z,8.53
2018-10-19T01:03:18.715Z,8.50
2018-10-19T01:05:47.911Z,8.45
2018-10-19T01:08:16.603Z,8.38
2018-10-19T01:10:45.393Z,8.37
2018-10-19T01:13:14.198Z,8.45
2018-10-19T01:15:43.039Z,8.35
2018-10-19T01:18:11.902Z,8.31
2018-10-19T01:20:40.537Z,8.35
2018-10-19T01:23:09.968Z,8.28
2018-10-19T01:25:42.484Z,8.35
2018-10-19T01:28:16.018Z,8.38
2018-10-19T01:30:44.855Z,8.43
2018-10-19T01:33:13.710Z,8.54
2018-10-19T01:35:42.928Z,8.55
2018-10-19T01:38:11.783Z,8.58
2018-10-19T01:40:40.659Z,8.57
2018-10-19T01:43:09.394Z,8.39
2018-10-19T01:45:40.078Z,8.29
2018-10-19T01:48:09.066Z,8.35
2018-10-19T01:50:37.845Z,8.47
2018-10-19T01:53:06.670Z,8.44
2018-10-19T01:55:35.300Z,8.38
2018-10-19T01:58:04.155Z,8.46
2018-10-19T02:00:32.754Z,8.33
2018-10-19T02:03:02.082Z,8.10
2018-10-19T02:05:30.867Z,8.43
2018-10-19T02:07:59.723Z,8.44
2018-10-19T02:10:28.302Z,8.42
2018-10-19T02:12:57.081Z,8.39
2018-10-19T02:15:26.394Z,8.38
2018-10-19T02:17:54.930Z,8.49
2018-10-19T02:20:23.538Z,8.29
2018-10-19T02:22:52.201Z,8.22
2018-10-19T02:25:20.786Z,8.31
2018-10-19T02:27:49.396Z,8.21
2018-10-19T02:30:18.148Z,8.25
2018-10-19T02:32:51.093Z,8.23
2018-10-19T02:35:19.944Z,8.36
2018-10-19T02:37:51.918Z,8.41
2018-10-19T02:40:29.668Z,8.48
2018-10-19T02:42:58.298Z,8.53
2018-10-19T02:45:26.899Z,8.53
2018-10-19T02:47:55.659Z,8.42
2018-10-19T02:50:24.299Z,8.43
2018-10-19T02:52:53.236Z,8.52
2018-10-19T02:55:26.001Z,8.56
2018-10-19T02:57:54.626Z,8.62
2018-10-19T03:00:30.191Z,8.67
2018-10-19T03:02:59.193Z,8.73
2018-10-19T03:05:27.803Z,8.82
2018-10-19T03:07:56.385Z,8.79
2018-10-19T03:10:24.977Z,8.73
2018-10-19T03:12:53.722Z,8.79
2018-10-19T03:15:22.503Z,8.87
2018-10-19T03:17:51.309Z,8.91
2018-10-19T03:20:20.129Z,8.91
2018-10-19T03:22:48.838Z,8.99
2018-10-19T03:25:17.667Z,9.09
2018-10-19T03:27:47.845Z,9.11
2018-10-19T03:30:16.519Z,9.12
2018-10-19T03:32:51.340Z,9.12
2018-10-19T03:35:20.190Z,9.16
2018-10-19T03:37:48.911Z,9.12
2018-10-19T03:40:17.632Z,9.18
2018-10-19T03:42:46.311Z,9.13
2018-10-19T03:45:16.845Z,9.10
2018-10-19T03:47:47.519Z,9.24
2018-10-19T03:50:17.989Z,9.24
2018-10-19T03:52:46.905Z,9.17
2018-10-19T03:55:15.696Z,9.11
2018-10-19T03:57:44.446Z,9.18
2018-10-19T04:00:13.054Z,9.16
2018-10-19T04:02:41.817Z,9.16
2018-10-19T04:07:44.988Z,9.12
2018-10-19T04:10:13.458Z,9.10
2018-10-19T04:12:41.937Z,9.17
2018-10-19T04:15:10.747Z,9.19
2018-10-19T04:17:39.190Z,9.21
2018-10-19T04:20:07.684Z,9.27
2018-10-19T04:22:36.176Z,9.30
2018-10-19T04:25:05.018Z,9.29
2018-10-19T04:27:33.496Z,9.35
2018-10-19T04:30:01.910Z,9.39
2018-10-19T04:32:30.359Z,9.37
2018-10-19T04:34:58.836Z,9.37
2018-10-19T04:37:27.242Z,9.41
2018-10-19T04:39:55.629Z,9.34
2018-10-19T04:42:24.227Z,9.09
2018-10-19T04:44:52.706Z,9.38
2018-10-19T04:47:21.158Z,9.46
2018-10-19T04:49:49.600Z,9.43
2018-10-19T04:52:18.106Z,9.44
2018-10-19T04:54:46.557Z,9.58
2018-10-19T04:57:15.028Z,9.55
2018-10-19T04:59:43.441Z,9.50
2018-10-19T05:02:12.017Z,9.44
2018-10-19T05:04:40.538Z,9.44
2018-10-19T05:07:08.975Z,9.42
2018-10-19T05:09:38.105Z,9.44
2018-10-19T05:12:06.579Z,9.51
2018-10-19T05:14:35.007Z,9.57
2018-10-19T05:17:03.459Z,9.45
2018-10-19T05:19:31.848Z,9.54
2018-10-19T05:22:00.405Z,9.55
2018-10-19T05:24:28.878Z,9.55
2018-10-19T05:26:57.309Z,9.59
2018-10-19T05:29:25.794Z,9.63
2018-10-19T05:31:54.246Z,9.62
2018-10-19T05:34:22.650Z,9.60
2018-10-19T05:36:51.069Z,9.62
2018-10-19T05:39:19.493Z,9.67
2018-10-19T05:41:47.944Z,9.71
2018-10-19T05:44:16.374Z,9.73
2018-10-19T05:46:44.802Z,9.73
2018-10-19T05:49:13.228Z,9.69
2018-10-19T05:51:41.635Z,9.77
2018-10-19T05:54:10.096Z,9.86
2018-10-19T05:56:38.505Z,9.79
2018-10-19T05:59:07.477Z,9.79
2018-10-19T06:01:35.967Z,9.81
2018-10-19T06:04:04.431Z,9.80
2018-10-19T06:06:32.834Z,9.80
2018-10-19T06:09:01.323Z,9.78
2018-10-19T06:11:29.730Z,9.89
2018-10-19T06:13:58.175Z,9.91
2018-10-19T06:16:26.592Z,10.00
2018-10-19T06:18:55.014Z,9.98
2018-10-19T06:21:23.413Z,10.07
2018-10-19T06:23:51.986Z,10.09
2018-10-19T06:26:20.462Z,10.04
2018-10-19T06:28:48.888Z,10.07
2018-10-19T06:31:17.626Z,10.14
2018-10-19T06:33:46.190Z,10.18
2018-10-19T06:36:14.553Z,10.24
2018-10-19T06:38:43.030Z,10.30
2018-10-19T06:41:11.466Z,10.35
2018-10-19T06:43:39.986Z,10.35
2018-10-19T06:46:08.405Z,10.36
2018-10-19T06:48:36.867Z,10.37
2018-10-19T06:51:05.358Z,10.41
2018-10-19T06:53:33.877Z,10.53
2018-10-19T06:56:02.377Z,10.60
2018-10-19T06:58:30.893Z,10.66
2018-10-19T07:00:59.686Z,10.72
2018-10-19T07:03:28.202Z,10.79
2018-10-19T07:05:56.634Z,10.85
2018-10-19T07:08:25.163Z,10.81
2018-10-19T07:10:53.581Z,10.84
2018-10-19T07:13:22.042Z,11.07
2018-10-19T07:15:50.527Z,11.17
2018-10-19T07:18:18.989Z,11.25
2018-10-19T07:20:47.654Z,11.26
2018-10-19T07:23:17.159Z,11.31
2018-10-19T07:25:49.971Z,11.23
2018-10-19T07:28:18.698Z,11.20
2018-10-19T07:30:47.109Z,11.35
2018-10-19T07:33:15.571Z,11.39
2018-10-19T07:35:43.965Z,11.44
2018-10-19T07:38:12.554Z,11.58
2018-10-19T07:40:41.017Z,11.43
2018-10-19T07:43:09.521Z,11.56
2018-10-19T07:45:38.056Z,11.49
2018-10-19T07:48:07.367Z,11.60
2018-10-19T07:50:49.461Z,11.70
2018-10-19T07:53:17.899Z,11.75
2018-10-19T07:55:46.397Z,11.75
2018-10-19T07:58:15.485Z,11.98
2018-10-19T08:00:44.144Z,11.84
2018-10-19T08:03:12.594Z,11.80
2018-10-19T08:05:41.676Z,11.80
2018-10-19T08:08:10.311Z,11.79
2018-10-19T08:10:38.890Z,11.90
2018-10-19T08:13:07.558Z,11.92
2018-10-19T08:15:36.970Z,12.17
2018-10-19T08:18:05.694Z,12.28
2018-10-19T08:20:34.120Z,12.33
2018-10-19T08:23:02.698Z,12.28
2018-10-19T08:25:31.318Z,12.46
2018-10-19T08:27:59.942Z,12.50
2018-10-19T08:30:28.482Z,12.73
2018-10-19T08:33:00.382Z,12.47
2018-10-19T08:35:28.786Z,12.50
2018-10-19T08:37:57.378Z,12.60
2018-10-19T08:40:26.090Z,12.59
2018-10-19T08:42:54.696Z,12.77
2018-10-19T08:45:23.234Z,12.81
2018-10-19T08:47:51.741Z,12.72
2018-10-19T08:50:20.135Z,13.16
2018-10-19T08:52:49.656Z,13.01
2018-10-19T08:55:18.082Z,12.83
2018-10-19T08:57:46.598Z,12.92
2018-10-19T09:00:15.019Z,12.94
2018-10-19T09:02:43.416Z,13.04
2018-10-19T09:05:11.927Z,13.09
2018-10-19T09:07:40.368Z,13.05
2018-10-19T09:10:09.133Z,13.23
2018-10-19T09:12:37.919Z,13.21
2018-10-19T09:15:07.116Z,12.85
2018-10-19T09:17:35.575Z,13.11
2018-10-19T09:20:05.757Z,13.30
2018-10-19T09:22:34.861Z,13.15
2018-10-19T09:25:03.897Z,13.16
2018-10-19T09:27:32.551Z,13.13
2018-10-19T09:30:01.930Z,13.31
2018-10-19T09:32:30.522Z,13.58
2018-10-19T09:34:59.238Z,13.34
2018-10-19T09:37:28.026Z,13.43
2018-10-19T09:39:59.327Z,13.68
2018-10-19T09:42:28.062Z,13.84
2018-10-19T09:47:49.861Z,13.77
2018-10-19T09:50:19.678Z,13.91
2018-10-19T09:52:48.161Z,14.14
2018-10-19T09:55:16.742Z,14.20
2018-10-19T09:57:45.291Z,14.58
2018-10-19T10:00:24.257Z,14.57
2018-10-19T10:02:52.776Z,14.64
2018-10-19T10:05:21.239Z,14.74
2018-10-19T10:07:50.913Z,14.77
2018-10-19T10:10:19.385Z,14.74
2018-10-19T10:12:47.827Z,14.72
2018-10-19T10:15:16.717Z,14.95
2018-10-19T10:17:45.918Z,14.65
2018-10-19T10:20:15.937Z,14.59
2018-10-19T10:22:44.395Z,14.37
2018-10-19T10:25:12.932Z,14.21
2018-10-19T10:27:41.770Z,14.18
2018-10-19T10:30:12.684Z,14.31
2018-10-19T10:33:02.532Z,14.32
2018-10-19T10:39:17.821Z,14.08
2018-10-19T10:47:22.093Z,14.49
2018-10-19T10:49:50.777Z,14.64
2018-10-19T10:52:19.495Z,14.72
2018-10-19T10:54:48.635Z,14.76
2018-10-19T10:57:17.223Z,14.69
2018-10-19T10:59:46.358Z,14.57
2018-10-19T11:02:15.399Z,14.48
2018-10-19T11:04:44.194Z,14.53
2018-10-19T11:07:12.968Z,14.69
2018-10-19T11:09:41.506Z,14.80
2018-10-19T11:12:11.000Z,15.02
2018-10-19T11:14:40.008Z,14.91
2018-10-19T11:17:08.759Z,14.96
2018-10-19T11:19:37.485Z,15.26
2018-10-19T11:22:06.698Z,15.24
2018-10-19T11:24:35.414Z,15.00
2018-10-19T11:27:04.412Z,15.04
2018-10-19T11:29:33.159Z,15.05
2018-10-19T11:32:02.130Z,15.02
2018-10-19T11:34:31.150Z,15.26
2018-10-19T11:36:59.871Z,15.18
2018-10-19T11:39:28.537Z,15.25
2018-10-19T11:41:57.215Z,15.14
2018-10-19T11:44:26.433Z,15.16
2018-10-19T11:46:59.214Z,15.13
2018-10-19T11:49:28.452Z,15.23
2018-10-19T11:51:57.450Z,15.45
2018-10-19T11:54:26.041Z,15.49
2018-10-19T11:56:54.702Z,15.60
2018-10-19T11:59:23.486Z,15.62
2018-10-19T12:01:52.211Z,16.03
2018-10-19T12:04:20.884Z,16.13
2018-10-19T12:06:50.099Z,15.91
2018-10-19T12:09:18.871Z,15.87
2018-10-19T12:11:47.524Z,15.40
2018-10-19T12:14:16.283Z,15.62
2018-10-19T12:16:54.631Z,15.68
2018-10-19T12:19:23.645Z,15.79
2018-10-19T12:21:53.036Z,16.18
2018-10-19T12:24:22.024Z,16.14
2018-10-19T12:26:50.930Z,16.37
2018-10-19T12:29:19.597Z,16.79
2018-10-19T12:31:48.319Z,17.10
2018-10-19T12:34:17.554Z,16.82
2018-10-19T12:36:46.576Z,16.88
2018-10-19T12:39:15.884Z,17.28
2018-10-19T12:41:44.811Z,17.32
2018-10-19T12:44:13.827Z,17.40
2018-10-19T12:46:53.632Z,17.24
2018-10-19T12:49:24.200Z,17.02
2018-10-19T12:51:52.962Z,17.21
2018-10-19T12:54:22.111Z,17.38
2018-10-19T12:56:50.870Z,18.07
2018-10-19T12:59:19.591Z,17.91
2018-10-19T13:01:48.275Z,18.15
2018-10-19T13:04:26.417Z,18.34
2018-10-19T13:06:55.408Z,18.04
2018-10-19T13:09:38.415Z,18.93
2018-10-19T13:12:07.832Z,19.70
2018-10-19T13:14:37.077Z,20.41
2018-10-19T13:17:16.286Z,19.92
2018-10-19T13:19:58.232Z,20.42
2018-10-19T13:22:34.337Z,21.07
2018-10-19T13:25:06.010Z,21.31
2018-10-19T13:27:35.457Z,22.22
2018-10-19T13:30:05.237Z,22.99
2018-10-19T13:32:33.665Z,22.60
2018-10-19T13:35:02.153Z,22.41
2018-10-19T13:37:30.678Z,22.24
2018-10-19T13:39:59.137Z,22.40
2018-10-19T13:42:27.599Z,23.00
2018-10-19T13:44:56.171Z,22.58
2018-10-19T13:47:29.659Z,23.32
2018-10-19T13:49:58.142Z,22.71
2018-10-19T13:52:26.766Z,22.86
2018-10-19T13:54:55.162Z,23.06
2018-10-19T13:57:23.617Z,23.40
2018-10-19T13:59:52.604Z,23.97
2018-10-19T14:02:22.595Z,24.33
2018-10-19T14:04:51.590Z,23.54
2018-10-19T14:07:20.066Z,23.75
2018-10-19T14:09:48.582Z,24.23
2018-10-19T14:12:17.078Z,23.91
2018-10-19T14:14:45.686Z,23.81
2018-10-19T14:17:14.270Z,22.80
2018-10-19T14:19:42.601Z,22.08
2018-10-19T14:22:11.621Z,22.38
2018-10-19T14:24:40.078Z,23.37
2018-10-19T14:27:08.555Z,23.13
2018-10-19T14:29:36.964Z,22.35
2018-10-19T14:32:05.570Z,23.71
2018-10-19T14:34:34.060Z,22.97
2018-10-19T14:37:02.485Z,22.97
2018-10-19T14:39:30.965Z,22.69
2018-10-19T14:41:59.451Z,22.94
2018-10-19T14:44:28.129Z,22.31
2018-10-19T14:46:56.668Z,21.96
2018-10-19T14:49:25.100Z,21.53
2018-10-19T14:51:53.600Z,21.39
2018-10-19T14:54:22.083Z,20.89
2018-10-19T14:56:50.502Z,20.59
2018-10-19T14:59:18.982Z,20.35
2018-10-19T15:01:47.426Z,20.67
2018-10-19T15:04:15.965Z,20.09
2018-10-19T15:06:44.426Z,19.40
2018-10-19T15:09:13.226Z,19.01
2018-10-19T15:11:42.557Z,18.98
2018-10-19T15:14:10.976Z,19.44
2018-10-19T15:16:39.783Z,19.77
2018-10-19T15:19:08.254Z,19.50
2018-10-19T15:21:36.733Z,19.39
2018-10-19T15:24:05.358Z,19.29
2018-10-19T15:26:34.826Z,18.66
2018-10-19T15:29:03.387Z,18.27
2018-10-19T15:31:31.709Z,17.95
2018-10-19T15:34:00.245Z,17.92
2018-10-19T15:36:28.656Z,17.83
2018-10-19T15:38:57.130Z,17.80
2018-10-19T15:41:25.625Z,17.48
2018-10-19T15:43:54.050Z,17.34
2018-10-19T15:46:22.751Z,17.13
2018-10-19T15:48:51.188Z,16.82
2018-10-19T15:51:19.604Z,16.73
2018-10-19T15:53:48.025Z,16.56
2018-10-19T15:56:16.426Z,16.55
2018-10-19T15:58:44.853Z,16.32
2018-10-19T16:01:13.258Z,16.17
2018-10-19T16:03:41.709Z,15.90
2018-10-19T16:06:10.215Z,15.84
2018-10-19T16:08:38.555Z,15.75
2018-10-19T16:11:07.231Z,15.56
2018-10-19T16:13:35.762Z,15.37
2018-10-19T16:16:04.221Z,15.26
2018-10-19T16:18:32.755Z,15.25
2018-10-19T16:21:01.317Z,15.10
2018-10-19T16:23:29.851Z,14.89
2018-10-19T16:25:58.912Z,14.76
2018-10-19T16:28:27.521Z,14.61
2018-10-19T16:30:56.061Z,14.48
2018-10-19T16:33:24.562Z,14.40
2018-10-19T16:35:53.283Z,14.27
2018-10-19T16:38:23.076Z,14.17
2018-10-19T16:40:51.678Z,14.05
2018-10-19T16:43:20.659Z,13.87
2018-10-19T16:45:49.655Z,14.07
2018-10-19T16:48:18.091Z,14.19
2018-10-19T16:50:46.554Z,14.14
2018-10-19T16:53:14.977Z,14.10
2018-10-19T16:55:43.430Z,14.05
2018-10-19T16:58:11.894Z,14.04
2018-10-19T17:00:40.580Z,13.95
2018-10-19T17:03:09.132Z,13.90
2018-10-19T17:05:38.254Z,13.87
2018-10-19T17:08:06.832Z,13.84
2018-10-19T17:10:35.383Z,13.79
2018-10-19T17:13:04.526Z,13.67
2018-10-19T17:15:33.145Z,13.53
2018-10-19T17:18:01.674Z,13.44
2018-10-19T17:20:30.210Z,13.33
2018-10-19T17:22:58.658Z,13.23
2018-10-19T17:25:27.193Z,13.29
2018-10-19T17:27:55.582Z,13.30
2018-10-19T17:30:24.064Z,13.36
2018-10-19T17:32:52.617Z,13.37
2018-10-19T17:35:21.014Z,13.19
2018-10-19T17:37:49.489Z,13.15
2018-10-19T17:40:18.864Z,12.95
2018-10-19T17:42:47.360Z,12.81
2018-10-19T17:45:15.857Z,12.77
2018-10-19T17:47:44.301Z,12.80
2018-10-19T17:50:12.918Z,12.84
2018-10-19T17:52:41.369Z,12.79
2018-10-19T17:55:11.151Z,12.67
2018-10-19T17:57:40.119Z,12.50
2018-10-19T18:00:10.371Z,12.40
2018-10-19T18:02:38.821Z,12.38
2018-10-19T18:05:07.760Z,12.28
2018-10-19T18:07:36.269Z,12.43
2018-10-19T18:10:04.875Z,12.45
2018-10-19T18:12:33.940Z,12.44
2018-10-19T18:15:02.450Z,12.43
2018-10-19T18:17:31.251Z,12.29
2018-10-19T18:19:59.715Z,12.20
2018-10-19T18:22:28.201Z,12.09
2018-10-19T18:24:56.857Z,12.00
2018-10-19T18:27:25.397Z,11.98
2018-10-19T18:29:53.883Z,11.85
2018-10-19T18:32:22.313Z,11.85
2018-10-19T18:34:50.758Z,11.85
2018-10-19T18:37:19.157Z,11.77
2018-10-19T18:39:47.570Z,11.71
2018-10-19T18:42:16.293Z,11.64
2018-10-19T18:44:44.846Z,11.47
2018-10-19T18:47:13.820Z,11.40
2018-10-19T18:49:42.230Z,11.56
2018-10-19T18:52:11.528Z,11.65
2018-10-19T18:54:40.016Z,11.66
2018-10-19T18:57:08.462Z,11.66
2018-10-19T18:59:36.886Z,11.57
2018-10-19T19:02:05.583Z,11.42
2018-10-19T19:04:33.967Z,11.44
2018-10-19T19:07:09.019Z,11.49
2018-10-19T19:09:37.530Z,11.57
2018-10-19T19:12:07.730Z,11.44
2018-10-19T19:14:36.292Z,11.30
2018-10-19T19:17:08.180Z,11.14
2018-10-19T19:19:36.944Z,11.10
2018-10-19T19:22:05.509Z,11.07
2018-10-19T19:24:54.573Z,11.16
2018-10-19T19:27:25.399Z,11.23
2018-10-19T19:30:02.482Z,11.10
2018-10-19T19:32:31.019Z,11.03
2018-10-19T19:34:59.514Z,11.03
2018-10-19T19:37:28.525Z,11.07
2018-10-19T19:40:01.740Z,11.09
2018-10-19T19:42:41.128Z,11.17
2018-10-19T19:45:09.574Z,11.27
2018-10-19T19:47:43.249Z,11.30
2018-10-19T19:50:12.483Z,11.39
2018-10-19T19:52:40.841Z,11.46
2018-10-19T19:55:09.325Z,11.54
2018-10-19T19:57:37.815Z,11.56
2018-10-19T20:00:06.674Z,11.52
2018-10-19T20:02:35.153Z,11.48
2018-10-19T20:05:04.041Z,11.37
2018-10-19T20:07:32.429Z,11.31
2018-10-19T20:10:00.999Z,11.22
2018-10-19T20:12:29.489Z,11.22
2018-10-19T20:14:57.972Z,11.18
2018-10-19T20:17:26.421Z,11.14
2018-10-19T20:19:54.916Z,11.15
2018-10-19T20:22:23.354Z,11.11
2018-10-19T20:24:51.898Z,11.12
2018-10-19T20:27:21.234Z,10.99
2018-10-19T20:29:51.123Z,10.67
2018-10-19T20:32:19.816Z,10.55
2018-10-19T20:34:50.660Z,10.52
2018-10-19T20:37:21.823Z,10.46
2018-10-19T20:39:52.020Z,10.35
2018-10-19T20:42:20.574Z,10.23
2018-10-19T20:44:49.034Z,10.17
2018-10-19T20:47:17.573Z,10.25
2018-10-19T20:49:49.048Z,10.25
2018-10-19T20:52:17.680Z,10.26
2018-10-19T20:54:46.142Z,10.28
2018-10-19T20:57:14.718Z,10.35
2018-10-19T20:59:43.162Z,10.43
2018-10-19T21:02:11.613Z,10.50
2018-10-19T21:04:40.070Z,10.54
2018-10-19T21:07:08.557Z,10.56
2018-10-19T21:09:37.042Z,10.59
2018-10-19T21:12:05.742Z,10.82
2018-10-19T21:14:34.150Z,10.93
2018-10-19T21:17:02.644Z,10.95
2018-10-19T21:19:31.152Z,11.01
2018-10-19T21:21:59.635Z,11.02
2018-10-19T21:24:28.245Z,11.10
2018-10-19T21:26:56.733Z,11.17
2018-10-19T21:29:25.165Z,11.09
2018-10-19T21:31:53.651Z,11.06
2018-10-19T21:34:22.269Z,11.08
2018-10-19T21:36:50.754Z,11.10
2018-10-19T21:39:19.186Z,11.06
2018-10-19T21:41:47.694Z,10.99
2018-10-19T21:44:16.182Z,10.91
2018-10-19T21:46:44.601Z,10.84
2018-10-19T21:49:13.075Z,10.63
2018-10-19T21:51:41.541Z,10.51
2018-10-19T21:54:09.974Z,10.46
2018-10-19T21:56:38.430Z,10.34
2018-10-19T21:59:06.889Z,10.21
2018-10-19T22:01:36.309Z,10.19
2018-10-19T22:04:04.757Z,9.97
2018-10-19T22:06:33.207Z,9.94
2018-10-19T22:09:01.690Z,9.85
2018-10-19T22:11:30.230Z,9.81
2018-10-19T22:13:58.790Z,9.76
2018-10-19T22:16:27.308Z,9.81
2018-10-19T22:18:55.788Z,9.78
2018-10-19T22:21:24.266Z,9.77
2018-10-19T22:23:56.589Z,9.77
2018-10-19T22:26:25.106Z,9.73
2018-10-19T22:28:54.172Z,9.65
2018-10-19T22:31:23.605Z,9.66
2018-10-19T22:33:52.103Z,9.67
2018-10-19T22:36:20.604Z,9.53
2018-10-19T22:38:49.326Z,9.55
2018-10-19T22:41:17.899Z,9.54
2018-10-19T22:43:46.274Z,9.80
2018-10-19T22:46:14.764Z,9.87
2018-10-19T22:48:43.209Z,9.76
2018-10-19T22:51:14.721Z,9.69
2018-10-19T22:53:43.196Z,9.73
2018-10-19T22:56:11.729Z,9.75
2018-10-19T22:58:40.182Z,9.76
2018-10-19T23:01:08.739Z,9.81
2018-10-19T23:03:37.140Z,10.05
2018-10-19T23:06:05.606Z,10.08
2018-10-19T23:08:34.059Z,10.12
2018-10-19T23:11:02.569Z,10.15
2018-10-19T23:13:30.963Z,10.04
2018-10-19T23:15:59.436Z,9.99
2018-10-19T23:18:27.935Z,10.02
2018-10-19T23:20:56.381Z,9.96
2018-10-19T23:23:24.861Z,9.92
2018-10-19T23:25:53.282Z,10.01
2018-10-19T23:28:21.723Z,9.94
2018-10-19T23:30:50.166Z,9.83
2018-10-19T23:33:18.595Z,9.70
2018-10-19T23:35:47.010Z,9.66
2018-10-19T23:38:15.537Z,9.54
2018-10-19T23:40:43.960Z,9.47
2018-10-19T23:43:12.578Z,9.42
2018-10-19T23:45:40.986Z,9.34
2018-10-19T23:48:09.433Z,9.47
2018-10-19T23:50:37.873Z,9.45
2018-10-19T23:53:06.479Z,9.34
2018-10-19T23:55:34.917Z,9.28
2018-10-19T23:58:03.630Z,9.28
